Time;durP1;ratioP1;P1;durP2;ratioP2;P2;SDS_P1;SDS_P2;PMS_P1;PMS_P2;Temp;Humidity;BMP_temperature;BMP_pressure;BME280_temperature;BME280_humidity;BME280_pressure;Samples;Min_cycle;Max_cycle;Signal;HPM_P1;HPM_P2
2020/12/03 00:01:05;;;;;;;29.33;9.00;;;6.20;99.90;;;;;;5023870;28;39082;-75
2020/12/03 00:03:42;;;;;;;21.80;7.87;;;6.20;99.90;;;;;;5052596;28;47316;-75
2020/12/03 00:06:19;;;;;;;25.80;7.73;;;6.20;99.90;;;;;;5018108;28;39436;-75
2020/12/03 00:08:50;;;;;;;26.33;7.73;;;6.20;99.90;;;;;;5041348;28;37728;-74
2020/12/03 00:11:17;;;;;;;23.43;7.53;;;6.20;99.90;;;;;;5021019;28;37964;-75
2020/12/03 00:13:43;;;;;;;23.37;6.93;;;6.20;99.90;;;;;;5023578;28;37312;-75
2020/12/03 00:16:09;;;;;;;17.83;7.07;;;6.30;99.90;;;;;;5025945;28;38651;-75
2020/12/03 00:18:37;;;;;;;14.50;5.93;;;6.20;99.90;;;;;;5025890;28;38902;-75
2020/12/03 00:21:06;;;;;;;25.30;5.63;;;6.20;99.90;;;;;;5029872;28;37741;-75
2020/12/03 00:23:34;;;;;;;19.43;6.27;;;6.30;99.90;;;;;;5041815;28;37332;-75
2020/12/03 00:26:00;;;;;;;24.40;7.43;;;6.30;99.90;;;;;;5039027;28;38042;-75
2020/12/03 00:28:37;;;;;;;18.63;5.60;;;6.30;99.90;;;;;;5020424;28;38642;-75
2020/12/03 00:31:04;;;;;;;17.57;5.33;;;6.30;99.90;;;;;;5027719;28;38341;-75
2020/12/03 00:33:31;;;;;;;19.27;5.93;;;6.30;99.90;;;;;;5017979;28;36888;-75
2020/12/03 00:35:57;;;;;;;19.43;5.90;;;6.30;99.90;;;;;;5018277;28;38860;-75
2020/12/03 00:38:24;;;;;;;20.87;5.63;;;6.30;99.90;;;;;;5020865;28;38439;-75
2020/12/03 00:40:51;;;;;;;27.07;7.27;;;6.30;99.90;;;;;;5006242;28;38314;-74
2020/12/03 00:43:17;;;;;;;13.10;5.93;;;6.20;99.90;;;;;;5046331;28;36105;-75
2020/12/03 00:45:46;;;;;;;18.40;6.67;;;6.20;99.90;;;;;;5023422;28;38672;-75
2020/12/03 00:48:16;;;;;;;19.83;7.07;;;6.20;99.90;;;;;;5014332;28;37280;-74
2020/12/03 00:50:42;;;;;;;16.03;6.83;;;6.20;99.90;;;;;;5019046;28;38712;-75
2020/12/03 00:53:09;;;;;;;21.90;7.83;;;6.20;99.90;;;;;;5019870;28;38124;-75
2020/12/03 00:55:35;;;;;;;19.03;7.13;;;6.20;99.90;;;;;;5055038;28;38554;-75
2020/12/03 00:58:02;;;;;;;23.67;7.20;;;6.20;99.90;;;;;;5018887;28;38284;-75
2020/12/03 01:00:28;;;;;;;34.13;8.13;;;6.20;99.90;;;;;;4995787;28;47311;-75
2020/12/03 01:02:54;;;;;;;22.27;7.10;;;6.20;99.90;;;;;;4999343;28;37727;-75
2020/12/03 01:05:21;;;;;;;26.90;8.00;;;6.20;99.90;;;;;;4998766;28;38839;-75
2020/12/03 01:07:47;;;;;;;20.13;7.00;;;6.20;99.90;;;;;;5008080;28;37045;-75
2020/12/03 01:10:23;;;;;;;20.40;7.07;;;6.20;99.90;;;;;;5021825;28;36673;-75
2020/12/03 01:12:50;;;;;;;24.97;7.70;;;6.20;99.90;;;;;;5007769;28;36335;-74
2020/12/03 01:15:17;;;;;;;25.57;8.17;;;6.20;99.90;;;;;;5001352;28;37595;-75
2020/12/03 01:17:43;;;;;;;22.73;8.87;;;6.20;99.90;;;;;;5000480;28;37946;-75
2020/12/03 01:20:12;;;;;;;19.53;9.47;;;6.20;99.90;;;;;;5006042;28;38186;-75
2020/12/03 01:22:39;;;;;;;27.43;8.90;;;6.20;99.90;;;;;;5025786;28;37181;-75
2020/12/03 01:25:09;;;;;;;26.57;9.33;;;6.20;99.90;;;;;;5002551;28;38752;-75
2020/12/03 01:27:36;;;;;;;20.90;8.80;;;6.20;99.90;;;;;;4998191;28;37489;-75
2020/12/03 01:30:06;;;;;;;20.13;9.37;;;6.20;99.90;;;;;;5018175;28;38171;-75
2020/12/03 01:32:33;;;;;;;21.17;8.87;;;6.20;99.90;;;;;;5010516;28;38156;-75
2020/12/03 01:35:00;;;;;;;24.80;8.20;;;6.20;99.90;;;;;;5021726;28;37623;-75
2020/12/03 01:37:26;;;;;;;21.80;9.47;;;6.30;99.90;;;;;;5014353;28;37693;-74
2020/12/03 01:39:52;;;;;;;23.17;9.17;;;6.20;99.90;;;;;;5004214;28;37944;-74
2020/12/03 01:42:18;;;;;;;28.13;9.30;;;6.20;99.90;;;;;;5007462;28;37900;-75
2020/12/03 01:44:47;;;;;;;30.47;9.67;;;6.30;99.90;;;;;;5007661;28;39065;-75
2020/12/03 01:47:29;;;;;;;22.17;9.00;;;6.30;99.90;;;;;;5021747;28;38381;-75
2020/12/03 01:49:56;;;;;;;22.83;8.93;;;6.30;99.90;;;;;;5020168;28;37936;-75
2020/12/03 01:52:22;;;;;;;28.77;9.33;;;6.30;99.90;;;;;;5029509;28;37277;-75
2020/12/03 01:54:48;;;;;;;19.00;7.83;;;6.30;99.90;;;;;;5025411;28;38470;-75
2020/12/03 01:57:55;;;;;;;21.43;8.70;;;6.30;99.90;;;;;;5022849;28;38072;-74
2020/12/03 02:00:22;;;;;;;29.90;8.93;;;6.30;99.90;;;;;;5000661;28;37577;-74
2020/12/03 02:02:50;;;;;;;33.73;10.43;;;6.30;99.90;;;;;;5038611;28;36330;-75
2020/12/03 02:05:30;;;;;;;29.30;10.17;;;6.30;99.90;;;;;;5024965;28;38761;-75
2020/12/03 02:07:56;;;;;;;27.97;9.53;;;6.30;99.90;;;;;;5021874;28;39588;-75
2020/12/03 02:10:24;;;;;;;22.10;9.07;;;6.40;99.90;;;;;;5027302;28;37382;-75
2020/12/03 02:12:51;;;;;;;28.50;10.67;;;6.30;99.90;;;;;;5028608;28;35399;-75
2020/12/03 02:15:19;;;;;;;20.70;9.33;;;6.30;99.90;;;;;;5024389;28;39169;-75
2020/12/03 02:17:45;;;;;;;29.17;10.10;;;6.40;99.90;;;;;;5039103;28;37383;-75
2020/12/03 02:20:16;;;;;;;29.90;11.13;;;6.40;99.90;;;;;;5024358;28;37401;-75
2020/12/03 02:22:42;;;;;;;29.43;11.97;;;6.40;99.90;;;;;;5038794;28;36595;-75
2020/12/03 02:25:09;;;;;;;27.20;10.80;;;6.40;99.90;;;;;;5027725;28;38811;-75
2020/12/03 02:27:37;;;;;;;26.17;10.77;;;6.30;99.90;;;;;;5027431;28;39660;-75
2020/12/03 02:30:06;;;;;;;22.93;10.27;;;6.30;99.90;;;;;;5028919;28;37481;-75
2020/12/03 02:32:32;;;;;;;30.53;10.70;;;6.30;99.90;;;;;;5035246;28;36004;-75
2020/12/03 02:34:59;;;;;;;33.60;10.20;;;6.30;99.90;;;;;;5020217;28;36632;-75
2020/12/03 02:37:29;;;;;;;29.57;11.20;;;6.30;99.90;;;;;;5025073;28;37259;-75
2020/12/03 02:39:55;;;;;;;28.47;11.70;;;6.30;99.90;;;;;;5026080;28;37749;-75
2020/12/03 02:42:22;;;;;;;25.87;11.43;;;6.30;99.90;;;;;;5019063;28;37193;-75
2020/12/03 02:44:49;;;;;;;26.77;11.47;;;6.40;99.90;;;;;;5024528;28;38650;-75
2020/12/03 02:47:18;;;;;;;26.93;11.87;;;6.30;99.90;;;;;;5026048;28;39227;-75
2020/12/03 02:49:46;;;;;;;26.70;11.33;;;6.30;99.90;;;;;;5021419;28;39761;-75
2020/12/03 02:52:15;;;;;;;30.63;12.53;;;6.40;99.90;;;;;;5039078;28;38080;-75
2020/12/03 02:54:42;;;;;;;29.87;13.10;;;6.30;99.90;;;;;;5019141;28;37636;-75
2020/12/03 02:57:09;;;;;;;25.70;12.07;;;6.30;99.90;;;;;;5022524;28;38194;-75
2020/12/03 02:59:36;;;;;;;28.90;13.27;;;6.40;99.90;;;;;;5034617;28;38995;-75
2020/12/03 03:02:02;;;;;;;31.40;12.73;;;6.40;99.90;;;;;;5022620;28;37489;-75
2020/12/03 03:04:29;;;;;;;28.07;12.77;;;6.40;99.90;;;;;;5023606;28;37981;-75
2020/12/03 03:06:55;;;;;;;32.83;15.27;;;6.40;99.90;;;;;;5024354;28;38326;-75
2020/12/03 03:09:22;;;;;;;31.93;14.60;;;6.40;99.90;;;;;;5027404;28;38235;-75
2020/12/03 03:11:48;;;;;;;28.60;13.03;;;6.50;99.90;;;;;;5035865;28;36769;-75
2020/12/03 03:14:15;;;;;;;34.23;16.23;;;6.40;99.90;;;;;;5020736;28;38644;-75
2020/12/03 03:16:41;;;;;;;24.13;12.40;;;6.50;99.90;;;;;;5027265;28;38639;-75
2020/12/03 03:19:07;;;;;;;29.60;14.80;;;6.50;99.90;;;;;;5028043;28;37131;-75
2020/12/03 03:21:33;;;;;;;36.27;17.13;;;6.50;99.90;;;;;;5020286;28;37217;-75
2020/12/03 03:23:59;;;;;;;34.27;17.23;;;6.50;99.90;;;;;;5021333;28;38433;-76
2020/12/03 03:26:25;;;;;;;28.70;16.87;;;6.50;99.90;;;;;;5027581;28;38743;-75
2020/12/03 03:28:52;;;;;;;26.50;16.57;;;6.50;99.90;;;;;;5036012;28;38231;-75
2020/12/03 03:31:18;;;;;;;28.40;16.97;;;6.50;99.90;;;;;;5022647;28;37507;-75
2020/12/03 03:33:46;;;;;;;35.50;19.30;;;6.50;99.90;;;;;;5019750;28;38519;-75
2020/12/03 03:36:13;;;;;;;34.30;21.07;;;6.50;99.90;;;;;;5034294;28;37402;-75
2020/12/03 03:38:39;;;;;;;38.63;23.70;;;6.50;99.90;;;;;;5021848;28;37169;-75
2020/12/03 03:41:06;;;;;;;45.30;23.77;;;6.60;99.90;;;;;;5018946;28;37059;-75
2020/12/03 03:43:33;;;;;;;39.07;23.80;;;6.60;99.90;;;;;;5022229;28;38367;-75
2020/12/03 03:45:59;;;;;;;35.97;20.87;;;6.60;99.90;;;;;;5018694;28;38299;-75
2020/12/03 03:48:25;;;;;;;50.87;26.03;;;6.50;99.90;;;;;;5019480;28;36875;-75
2020/12/03 03:50:52;;;;;;;37.87;24.20;;;6.50;99.90;;;;;;5013069;28;37395;-75
2020/12/03 03:53:18;;;;;;;43.00;26.57;;;6.50;99.90;;;;;;5017596;28;37830;-75
2020/12/03 03:55:44;;;;;;;42.97;26.73;;;6.50;99.90;;;;;;5039543;28;38483;-75
2020/12/03 03:58:10;;;;;;;45.07;29.17;;;6.50;99.90;;;;;;5021036;28;37215;-74
2020/12/03 04:00:41;;;;;;;42.90;27.47;;;6.50;99.90;;;;;;5021374;28;38989;-75
2020/12/03 04:03:13;;;;;;;46.80;26.60;;;6.50;99.90;;;;;;5014898;28;38632;-75
2020/12/03 04:05:43;;;;;;;46.00;25.57;;;6.50;99.90;;;;;;5021730;28;38058;-75
2020/12/03 04:08:10;;;;;;;44.70;26.30;;;6.50;99.90;;;;;;5037203;28;38099;-75
2020/12/03 04:10:36;;;;;;;41.23;25.63;;;6.50;99.90;;;;;;5031617;28;36610;-75
2020/12/03 04:13:02;;;;;;;40.40;24.57;;;6.50;99.90;;;;;;5034602;28;37831;-75
2020/12/03 04:15:28;;;;;;;40.57;25.37;;;6.50;99.90;;;;;;5021646;28;37491;-75
2020/12/03 04:17:54;;;;;;;41.00;26.80;;;6.50;99.90;;;;;;5018275;28;39408;-75
2020/12/03 04:20:20;;;;;;;51.17;28.87;;;6.50;99.90;;;;;;5037894;28;37408;-76
2020/12/03 04:22:47;;;;;;;45.07;30.60;;;6.50;99.90;;;;;;5031426;28;37838;-76
2020/12/03 04:25:13;;;;;;;46.23;29.10;;;6.50;99.90;;;;;;5036934;28;38415;-75
2020/12/03 04:27:40;;;;;;;52.93;30.73;;;6.50;99.90;;;;;;5016995;28;38276;-75
2020/12/03 04:30:08;;;;;;;47.10;30.50;;;6.50;99.90;;;;;;5018691;28;37546;-75
2020/12/03 04:32:34;;;;;;;51.33;32.50;;;6.50;99.90;;;;;;5017139;28;37750;-75
2020/12/03 04:35:00;;;;;;;50.27;32.77;;;6.50;99.90;;;;;;5017201;28;39462;-75
2020/12/03 04:37:27;;;;;;;47.83;32.97;;;6.50;99.90;;;;;;5016050;28;39855;-75
2020/12/03 04:39:53;;;;;;;46.07;30.07;;;6.50;99.90;;;;;;5016602;28;37229;-75
2020/12/03 04:42:31;;;;;;;36.67;28.27;;;6.60;99.90;;;;;;5023015;28;38090;-75
2020/12/03 04:45:15;;;;;;;43.70;28.63;;;6.50;99.90;;;;;;5017879;28;38733;-75
2020/12/03 04:47:50;;;;;;;45.90;27.93;;;6.50;99.90;;;;;;5021960;28;48625;-76
2020/12/03 04:50:37;;;;;;;43.83;27.27;;;6.50;99.90;;;;;;5005044;28;37449;-75
2020/12/03 04:53:11;;;;;;;40.40;25.97;;;6.50;99.90;;;;;;5037644;28;37633;-75
2020/12/03 04:55:53;;;;;;;38.23;24.83;;;6.50;99.90;;;;;;5017580;28;38863;-75
2020/12/03 04:58:34;;;;;;;46.47;24.85;;;6.50;99.90;;;;;;5023993;28;39128;-75
2020/12/03 05:01:24;;;;;;;42.97;25.73;;;6.50;99.90;;;;;;5039075;28;37074;-76
2020/12/03 05:03:57;;;;;;;39.20;23.87;;;6.50;99.90;;;;;;5010040;28;48654;-75
2020/12/03 05:06:39;;;;;;;39.23;24.77;;;6.50;99.90;;;;;;5020623;28;38437;-75
2020/12/03 05:09:26;;;;;;;34.83;23.97;;;6.50;99.90;;;;;;5033278;28;38011;-75
2020/12/03 05:11:55;;;;;;;37.30;26.53;;;6.50;99.90;;;;;;5009299;28;37564;-75
2020/12/03 05:14:49;;;;;;;39.97;26.27;;;6.50;99.90;;;;;;5034094;28;37665;-75
2020/12/03 05:17:26;;;;;;;;;;;6.50;99.90;;;;;;5016255;28;38442;-75
2020/12/03 05:20:11;;;;;;;37.10;25.13;;;6.50;99.90;;;;;;5016803;28;37751;-75
2020/12/03 05:22:38;;;;;;;42.50;28.37;;;6.50;99.90;;;;;;5031275;28;47390;-76
2020/12/03 05:25:13;;;;;;;41.20;28.53;;;6.50;99.90;;;;;;5022284;28;37912;-75
2020/12/03 05:27:40;;;;;;;46.90;31.97;;;6.50;99.90;;;;;;5020068;28;37332;-75
2020/12/03 05:30:08;;;;;;;46.23;32.70;;;6.50;99.90;;;;;;5009870;28;38467;-75
2020/12/03 05:32:36;;;;;;;42.23;31.47;;;6.50;99.90;;;;;;5018050;28;37335;-75
2020/12/03 05:35:04;;;;;;;46.37;31.83;;;6.60;99.90;;;;;;5015821;28;38543;-75
2020/12/03 05:37:33;;;;;;;56.53;34.73;;;6.60;99.90;;;;;;5029588;28;47924;-75
2020/12/03 05:40:00;;;;;;;54.40;34.97;;;6.60;99.90;;;;;;4998952;28;38665;-75
2020/12/03 05:42:32;;;;;;;54.37;33.27;;;6.60;99.90;;;;;;5023583;28;40032;-75
2020/12/03 05:45:00;;;;;;;60.73;36.80;;;6.60;99.90;;;;;;5023416;28;38925;-75
2020/12/03 05:47:35;;;;;;;49.97;34.77;;;6.60;99.90;;;;;;5020429;28;46752;-75
2020/12/03 05:50:07;;;;;;;57.87;36.37;;;6.60;99.90;;;;;;5021514;28;38233;-75
2020/12/03 05:52:34;;;;;;;53.93;34.93;;;6.60;99.90;;;;;;5050641;28;46963;-76
2020/12/03 05:55:11;;;;;;;59.37;37.67;;;6.60;99.90;;;;;;5022768;28;38343;-75
2020/12/03 05:57:42;;;;;;;55.27;37.00;;;6.70;99.90;;;;;;5036553;28;47245;-74
2020/12/03 06:00:16;;;;;;;52.03;35.67;;;6.70;99.90;;;;;;5023301;28;36876;-75
2020/12/03 06:03:01;;;;;;;63.10;37.63;;;6.70;99.90;;;;;;5019231;28;47765;-74
2020/12/03 06:05:43;;;;;;;61.83;37.17;;;6.70;99.90;;;;;;5011094;28;47081;-76
2020/12/03 06:08:28;;;;;;;56.60;37.60;;;6.70;99.90;;;;;;5024322;28;38517;-75
2020/12/03 06:11:19;;;;;;;52.73;34.00;;;6.70;99.90;;;;;;5015959;28;37226;-75
2020/12/03 06:14:14;;;;;;;57.67;35.77;;;6.60;99.90;;;;;;5020622;28;45063;-76
2020/12/03 06:17:14;;;;;;;56.07;36.07;;;6.70;99.90;;;;;;5020286;28;49559;-77
2020/12/03 06:19:40;;;;;;;57.83;35.17;;;6.60;99.90;;;;;;5026745;28;47079;-76
2020/12/03 06:22:45;;;;;;;61.00;36.13;;;6.70;99.90;;;;;;5044532;28;38163;-76
2020/12/03 06:25:35;;;;;;;55.60;35.40;;;6.70;99.90;;;;;;5025600;28;37524;-76
2020/12/03 06:28:23;;;;;;;69.23;38.37;;;6.70;99.90;;;;;;5046273;28;37694;-76
2020/12/03 06:30:59;;;;;;;62.27;38.53;;;6.70;99.90;;;;;;5048164;28;37712;-76
2020/12/03 06:33:42;;;;;;;59.23;36.37;;;6.70;99.90;;;;;;5016555;28;37281;-74
2020/12/03 06:36:14;;;;;;;59.63;36.37;;;6.70;99.90;;;;;;5036328;28;38705;-73
2020/12/03 06:39:12;;;;;;;67.90;37.37;;;6.70;99.90;;;;;;5048866;28;37913;-74
2020/12/03 06:41:56;;;;;;;56.37;36.70;;;6.70;99.90;;;;;;5025810;28;47224;-74
2020/12/03 06:44:41;;;;;;;62.63;38.70;;;6.70;99.90;;;;;;5030880;28;38082;-73
2020/12/03 06:47:44;;;;;;;60.07;35.23;;;6.70;99.90;;;;;;5040039;28;37477;-73
2020/12/03 06:50:54;;;;;;;65.53;38.95;;;6.70;99.90;;;;;;5021394;28;38865;-74
2020/12/03 06:53:37;;;;;;;51.77;35.20;;;6.70;99.90;;;;;;5020352;28;37789;-74
2020/12/03 06:56:38;;;;;;;62.83;38.50;;;6.70;99.90;;;;;;5006384;28;38517;-75
2020/12/03 06:59:38;;;;;;;60.50;36.63;;;6.70;99.90;;;;;;5023567;28;36691;-76
2020/12/03 07:02:39;;;;;;;66.43;39.73;;;6.70;99.90;;;;;;5029309;28;37479;-76
2020/12/03 07:05:46;;;;;;;61.83;39.63;;;6.70;99.90;;;;;;5037729;28;37482;-77
2020/12/03 07:08:26;;;;;;;64.27;39.07;;;6.70;99.90;;;;;;5024251;28;37881;-77
2020/12/03 07:11:07;;;;;;;69.90;38.97;;;6.70;99.90;;;;;;5018599;28;36551;-76
2020/12/03 07:14:11;;;;;;;62.90;39.37;;;6.70;99.90;;;;;;5040053;28;47507;-76
2020/12/03 07:17:08;;;;;;;68.40;39.23;;;6.70;99.90;;;;;;5037046;28;47280;-77
2020/12/03 07:20:01;;;;;;;60.80;36.83;;;6.70;99.90;;;;;;5018324;28;48637;-77
2020/12/03 07:22:42;;;;;;;59.73;37.10;;;6.70;99.90;;;;;;5029289;28;47193;-77
2020/12/03 07:25:09;;;;;;;64.57;37.23;;;6.70;99.90;;;;;;5017058;28;39821;-77
2020/12/03 07:27:56;;;;;;;63.33;38.30;;;6.70;99.90;;;;;;5016809;28;39063;-77
2020/12/03 07:30:56;;;;;;;62.33;38.20;;;6.70;99.90;;;;;;5032340;28;37633;-76
2020/12/03 07:33:56;;;;;;;68.17;38.33;;;6.70;99.90;;;;;;5014276;28;37925;-77
2020/12/03 07:36:31;;;;;;;63.53;36.33;;;6.70;99.90;;;;;;5017757;28;39615;-76
2020/12/03 07:39:03;;;;;;;61.63;36.23;;;6.70;99.90;;;;;;5028088;28;36954;-76
2020/12/03 07:41:40;;;;;;;61.63;36.80;;;6.70;99.90;;;;;;5011389;28;48332;-75
2020/12/03 07:44:27;;;;;;;59.03;36.50;;;6.70;99.90;;;;;;5012501;28;37536;-75
2020/12/03 07:47:19;;;;;;;54.67;34.03;;;6.70;99.90;;;;;;5017180;28;39477;-76
2020/12/03 07:49:48;;;;;;;60.07;38.43;;;6.70;99.90;;;;;;5026303;28;44761;-76
2020/12/03 07:52:24;;;;;;;55.23;34.50;;;6.70;99.90;;;;;;5017310;28;37340;-77
2020/12/03 07:54:50;;;;;;;63.30;37.07;;;6.70;99.90;;;;;;5028223;28;36614;-76
2020/12/03 07:57:46;;;;;;;54.20;34.83;;;6.70;99.90;;;;;;5010274;28;37607;-76
2020/12/03 08:00:30;;;;;;;53.07;35.33;;;6.60;99.90;;;;;;5029331;28;37310;-76
2020/12/03 08:02:58;;;;;;;51.07;34.93;;;6.60;99.90;;;;;;5039379;28;37067;-76
2020/12/03 08:05:48;;;;;;;53.30;33.40;;;6.70;99.90;;;;;;5025287;28;37503;-76
2020/12/03 08:08:23;;;;;;;49.03;32.53;;;6.60;99.90;;;;;;5024133;28;40925;-76
2020/12/03 08:10:53;;;;;;;50.57;32.60;;;6.60;99.90;;;;;;5036550;28;37634;-76
2020/12/03 08:13:39;;;;;;;49.27;32.13;;;6.60;99.90;;;;;;5027776;28;38770;-76
2020/12/03 08:16:10;;;;;;;50.80;32.23;;;6.60;99.90;;;;;;5022412;28;37281;-76
2020/12/03 08:18:41;;;;;;;48.43;31.20;;;6.60;99.90;;;;;;5018937;28;38844;-76
2020/12/03 08:21:08;;;;;;;48.40;32.60;;;6.60;99.90;;;;;;5009971;28;38643;-76
2020/12/03 08:23:34;;;;;;;41.10;29.07;;;6.60;99.90;;;;;;5018229;28;38205;-76
2020/12/03 08:26:01;;;;;;;40.57;29.30;;;6.60;99.90;;;;;;5019065;28;38435;-75
2020/12/03 08:28:29;;;;;;;38.73;27.57;;;6.60;99.90;;;;;;5018281;28;47967;-76
2020/12/03 08:30:55;;;;;;;39.97;26.43;;;6.70;99.90;;;;;;5024151;28;37347;-76
2020/12/03 08:33:27;;;;;;;35.17;24.57;;;6.70;99.90;;;;;;5026174;28;37286;-76
2020/12/03 08:35:55;;;;;;;;;;;6.60;99.90;;;;;;5027187;28;38434;-76
2020/12/03 08:38:28;;;;;;;31.23;22.53;;;6.60;99.90;;;;;;5019653;28;37820;-76
2020/12/03 08:40:58;;;;;;;34.33;23.17;;;6.60;99.90;;;;;;5018719;28;38611;-76
2020/12/03 08:43:25;;;;;;;32.10;23.27;;;6.60;99.90;;;;;;5009700;28;38192;-76
2020/12/03 08:46:03;;;;;;;32.30;22.03;;;6.60;99.90;;;;;;5051990;28;36220;-76
2020/12/03 08:48:36;;;;;;;36.27;23.17;;;6.60;99.90;;;;;;5018149;28;47248;-77
2020/12/03 08:51:09;;;;;;;34.37;22.33;;;6.60;99.90;;;;;;5021238;28;38070;-76
2020/12/03 08:53:37;;;;;;;35.42;22.77;;;6.60;99.90;;;;;;5029174;28;38780;-76
2020/12/03 08:56:15;;;;;;;36.07;21.87;;;6.60;99.90;;;;;;5034849;28;37294;-77
2020/12/03 08:58:49;;;;;;;40.27;25.53;;;6.60;99.90;;;;;;5025553;28;37680;-76
2020/12/03 09:01:18;;;;;;;39.37;26.03;;;6.60;99.90;;;;;;5025381;28;38506;-76
2020/12/03 09:03:45;;;;;;;40.47;25.83;;;6.60;99.90;;;;;;5014166;28;38416;-76
2020/12/03 09:06:12;;;;;;;36.10;24.33;;;6.60;99.90;;;;;;5051551;28;35972;-77
2020/12/03 09:08:39;;;;;;;38.43;24.97;;;6.60;99.90;;;;;;5023507;28;37797;-76
2020/12/03 09:11:06;;;;;;;32.70;22.67;;;6.60;99.90;;;;;;5055394;28;37513;-76
2020/12/03 09:13:32;;;;;;;31.00;21.80;;;6.60;99.90;;;;;;5023203;28;38181;-77
2020/12/03 09:16:00;;;;;;;32.17;22.47;;;6.60;99.90;;;;;;5053959;28;36030;-76
2020/12/03 09:18:26;;;;;;;30.67;21.27;;;6.60;99.90;;;;;;5018245;28;48234;-76
2020/12/03 09:20:55;;;;;;;31.77;22.57;;;6.60;99.90;;;;;;5027405;28;38997;-77
2020/12/03 09:23:23;;;;;;;34.03;22.63;;;6.60;99.90;;;;;;5033303;28;35855;-76
2020/12/03 09:25:50;;;;;;;30.23;20.87;;;6.60;99.90;;;;;;5025444;28;37577;-77
2020/12/03 09:28:18;;;;;;;30.60;22.73;;;6.60;99.90;;;;;;5020244;28;38717;-79
2020/12/03 09:30:47;;;;;;;29.57;22.77;;;6.60;99.90;;;;;;5010792;28;38518;-77
2020/12/03 09:33:17;;;;;;;28.33;20.97;;;6.60;99.90;;;;;;5038181;28;38664;-75
2020/12/03 09:35:46;;;;;;;31.97;22.53;;;6.60;99.90;;;;;;5035701;28;37752;-75
2020/12/03 09:38:14;;;;;;;31.37;22.53;;;6.60;99.90;;;;;;5013411;28;38919;-75
2020/12/03 09:40:45;;;;;;;30.73;22.10;;;6.60;99.90;;;;;;5052117;28;37601;-74
2020/12/03 09:43:13;;;;;;;29.53;21.83;;;6.60;99.90;;;;;;5015052;28;37849;-74
2020/12/03 09:45:43;;;;;;;29.10;21.50;;;6.60;99.90;;;;;;5023623;28;36545;-74
2020/12/03 09:48:15;;;;;;;26.73;20.63;;;6.60;99.90;;;;;;5023003;28;37707;-74
2020/12/03 09:50:42;;;;;;;28.92;21.13;;;6.60;99.90;;;;;;5033107;28;37821;-74
2020/12/03 09:53:14;;;;;;;29.07;20.73;;;6.60;99.90;;;;;;5015610;28;38306;-75
2020/12/03 09:55:40;;;;;;;29.97;20.20;;;6.60;99.90;;;;;;5040867;28;36511;-75
2020/12/03 09:58:06;;;;;;;26.20;20.03;;;6.70;99.90;;;;;;5020219;28;38434;-75
2020/12/03 10:00:38;;;;;;;28.83;20.90;;;6.60;99.90;;;;;;5042110;28;36946;-75
2020/12/03 10:03:32;;;;;;;26.30;19.70;;;6.70;99.90;;;;;;5015097;28;38245;-75
2020/12/03 10:06:08;;;;;;;;;;;6.70;99.90;;;;;;5043277;28;36599;-75
2020/12/03 10:08:55;;;;;;;26.07;19.23;;;6.70;99.90;;;;;;5029807;28;47239;-75
2020/12/03 10:11:46;;;;;;;22.80;17.90;;;6.70;99.90;;;;;;5025582;28;38387;-75
2020/12/03 10:14:50;;;;;;;26.87;18.70;;;6.80;99.90;;;;;;5022391;28;37711;-75
2020/12/03 10:17:19;;;;;;;27.30;19.10;;;6.70;99.90;;;;;;5036076;28;36308;-75
2020/12/03 10:19:47;;;;;;;24.33;18.83;;;6.70;99.90;;;;;;5017878;28;38820;-75
2020/12/03 10:22:18;;;;;;;25.70;18.07;;;6.70;99.90;;;;;;5046321;28;37879;-75
2020/12/03 10:24:53;;;;;;;28.67;20.20;;;6.70;99.90;;;;;;5025111;28;38185;-75
2020/12/03 10:27:29;;;;;;;30.83;20.10;;;6.70;99.90;;;;;;5029046;28;36670;-75
2020/12/03 10:30:00;;;;;;;25.07;20.27;;;6.70;99.90;;;;;;5029204;28;38000;-76
2020/12/03 10:32:27;;;;;;;26.73;20.00;;;6.70;99.90;;;;;;5027821;28;39088;-76
2020/12/03 10:34:55;;;;;;;27.57;19.87;;;6.70;99.90;;;;;;5030209;28;37964;-75
2020/12/03 10:37:24;;;;;;;32.83;21.53;;;6.70;99.90;;;;;;5029251;28;37534;-76
2020/12/03 10:39:59;;;;;;;27.17;19.60;;;6.70;99.90;;;;;;5034924;28;39795;-75
2020/12/03 10:42:34;;;;;;;34.00;21.83;;;6.70;99.90;;;;;;5017281;28;37292;-75
2020/12/03 10:45:15;;;;;;;30.90;20.30;;;6.70;99.90;;;;;;5025052;28;37329;-75
2020/12/03 10:47:58;;;;;;;36.70;21.93;;;6.80;99.90;;;;;;5017117;28;49303;-77
2020/12/03 10:50:46;;;;;;;29.45;20.33;;;6.80;99.90;;;;;;5023801;28;39786;-75
2020/12/03 10:53:16;;;;;;;31.47;21.63;;;6.80;99.90;;;;;;5053116;28;38700;-75
2020/12/03 10:55:43;;;;;;;33.47;22.43;;;6.80;99.90;;;;;;5025865;28;38038;-75
2020/12/03 10:58:12;;;;;;;31.10;22.03;;;6.80;99.90;;;;;;5023754;28;37425;-75
2020/12/03 11:00:41;;;;;;;30.10;21.27;;;6.80;99.90;;;;;;5039002;28;38832;-75
2020/12/03 11:03:12;;;;;;;31.73;21.63;;;6.80;99.90;;;;;;5062889;28;38984;-75
2020/12/03 11:05:45;;;;;;;32.60;21.70;;;6.90;99.90;;;;;;5014372;28;38427;-75
2020/12/03 11:08:11;;;;;;;;;;;6.90;99.90;;;;;;5020994;28;38342;-76
2020/12/03 11:10:40;;;;;;;35.07;22.87;;;6.80;99.90;;;;;;5042413;28;38051;-75
2020/12/03 11:13:08;;;;;;;35.27;23.27;;;6.80;99.90;;;;;;5027185;28;38189;-76
2020/12/03 11:15:34;;;;;;;37.47;23.93;;;6.90;99.90;;;;;;5018592;28;38254;-76
2020/12/03 11:18:06;;;;;;;37.53;23.83;;;6.80;99.90;;;;;;5024294;28;37283;-75
2020/12/03 11:20:37;;;;;;;35.85;24.63;;;6.90;99.90;;;;;;5022363;28;48892;-76
2020/12/03 11:23:18;;;;;;;36.90;24.80;;;6.90;99.90;;;;;;5031686;28;38126;-76
2020/12/03 11:25:44;;;;;;;41.70;24.83;;;6.90;99.90;;;;;;5025991;28;38745;-75
2020/12/03 11:28:29;;;;;;;35.47;24.70;;;6.90;99.90;;;;;;5037326;28;36535;-76
2020/12/03 11:31:02;;;;;;;33.00;22.33;;;6.90;99.90;;;;;;5036360;28;38668;-75
2020/12/03 11:33:29;;;;;;;35.80;21.83;;;6.90;99.90;;;;;;5012759;28;48866;-76
2020/12/03 11:36:04;;;;;;;33.57;21.47;;;6.90;99.90;;;;;;5022436;28;38277;-75
2020/12/03 11:38:32;;;;;;;29.77;19.83;;;7.00;99.90;;;;;;5021327;28;47625;-74
2020/12/03 11:41:25;;;;;;;31.57;19.30;;;7.00;99.90;;;;;;5007133;28;38850;-75
2020/12/03 11:47:18;;;;;;;;;;;7.00;99.90;;;;;;5007754;28;49596;-75
2020/12/03 11:49:36;;;;;;;27.47;18.63;;;7.00;99.90;;;;;;5006099;28;47748;-75
2020/12/03 11:52:16;;;;;;;27.43;19.67;;;6.90;99.90;;;;;;5006235;28;38876;-74
2020/12/03 11:54:47;;;;;;;26.90;19.17;;;6.90;99.90;;;;;;5028614;28;37211;-75
2020/12/03 11:57:16;;;;;;;31.53;19.83;;;6.90;99.90;;;;;;5019398;28;38329;-75
2020/12/03 11:59:42;;;;;;;28.63;19.37;;;6.90;99.90;;;;;;5005327;28;37284;-75
2020/12/03 12:02:10;;;;;;;27.23;18.40;;;6.90;99.90;;;;;;5005770;28;38761;-75
2020/12/03 12:05:25;;;;;;;26.67;18.03;;;6.90;99.90;;;;;;5004133;28;37787;-75
2020/12/03 12:12:31;;;;;;;27.63;17.00;;;7.00;99.90;;;;;;5006875;28;48615;-75
2020/12/03 12:14:57;;;;;;;30.67;16.87;;;7.00;99.90;;;;;;5005035;28;37197;-75
2020/12/03 12:17:23;;;;;;;25.93;16.23;;;7.00;99.90;;;;;;5020962;28;37214;-75
2020/12/03 12:19:53;;;;;;;30.50;17.23;;;7.00;99.90;;;;;;5005287;28;35211;-75
2020/12/03 12:22:19;;;;;;;29.80;17.60;;;7.10;99.90;;;;;;5004443;28;37787;-74
2020/12/03 12:24:45;;;;;;;26.23;16.90;;;7.10;99.90;;;;;;5003538;28;38301;-75
2020/12/03 12:27:13;;;;;;;26.80;16.03;;;7.10;99.90;;;;;;4995752;28;39226;-76
2020/12/03 12:29:39;;;;;;;26.97;15.53;;;7.10;99.90;;;;;;5020698;28;36641;-77
2020/12/03 12:32:05;;;;;;;27.67;15.20;;;7.00;99.90;;;;;;5020422;28;38342;-76
2020/12/03 12:34:32;;;;;;;26.57;15.53;;;7.00;99.90;;;;;;5016772;28;37953;-75
2020/12/03 12:36:59;;;;;;;25.97;15.83;;;7.10;99.90;;;;;;5016037;28;37820;-75
2020/12/03 12:39:25;;;;;;;26.90;15.47;;;7.00;99.90;;;;;;5045079;27;35614;-74
2020/12/03 12:42:01;;;;;;;27.47;16.23;;;7.00;99.90;;;;;;5014311;28;39659;-75
2020/12/03 12:44:28;;;;;;;31.20;17.03;;;7.00;99.90;;;;;;5008609;28;47442;-73
2020/12/03 12:47:02;;;;;;;28.20;16.77;;;7.00;99.90;;;;;;5010924;28;38640;-74
2020/12/03 12:49:28;;;;;;;32.27;17.50;;;6.90;99.90;;;;;;4994136;28;48492;-74
2020/12/03 12:51:55;;;;;;;27.80;17.63;;;6.90;99.90;;;;;;5021050;28;38545;-74
2020/12/03 12:54:23;;;;;;;27.27;17.43;;;6.80;99.90;;;;;;5002538;28;38850;-74
2020/12/03 12:56:49;;;;;;;30.43;18.03;;;6.80;99.90;;;;;;5003780;28;38238;-74
2020/12/03 12:59:16;;;;;;;29.03;16.70;;;6.80;99.90;;;;;;5001386;28;37485;-74
2020/12/03 13:01:46;;;;;;;31.23;17.00;;;6.80;99.90;;;;;;5006166;28;38885;-74
2020/12/03 13:04:13;;;;;;;26.03;16.60;;;6.80;99.90;;;;;;5000128;28;39080;-74
2020/12/03 13:06:40;;;;;;;30.60;18.03;;;6.80;99.90;;;;;;4986333;28;38940;-73
2020/12/03 13:09:07;;;;;;;29.30;18.00;;;6.80;99.90;;;;;;5018287;28;36500;-74
2020/12/03 13:11:33;;;;;;;31.03;18.93;;;6.70;99.90;;;;;;5003064;28;38618;-74
2020/12/03 13:14:00;;;;;;;31.57;18.33;;;6.70;99.90;;;;;;5000056;28;38328;-74
2020/12/03 13:16:27;;;;;;;31.37;19.97;;;6.70;99.90;;;;;;5009552;28;38322;-75